sensor_id;sensor_type;location;lat;lon;timestamp;P1;durP1;ratioP1;P2;durP2;ratioP2
45358;SDS011;31096;49.292;8.710;2022-10-16T00:00:31;4.35;;;1.88;;
45358;SDS011;31096;49.292;8.710;2022-10-16T00:05:23;3.92;;;1.90;;
45358;SDS011;31096;49.292;8.710;2022-10-16T00:10:13;3.20;;;1.70;;
45358;SDS011;31096;49.292;8.710;2022-10-16T00:15:04;4.40;;;1.90;;
45358;SDS011;31096;49.292;8.710;2022-10-16T00:19:55;3.85;;;2.00;;
45358;SDS011;31096;49.292;8.710;2022-10-16T00:24:46;4.33;;;1.80;;
45358;SDS011;31096;49.292;8.710;2022-10-16T00:29:37;3.65;;;2.00;;
45358;SDS011;31096;49.292;8.710;2022-10-16T00:34:27;4.10;;;2.07;;
45358;SDS011;31096;49.292;8.710;2022-10-16T00:39:18;4.33;;;2.50;;
45358;SDS011;31096;49.292;8.710;2022-10-16T00:49:35;6.10;;;2.57;;
45358;SDS011;31096;49.292;8.710;2022-10-16T00:54:27;4.70;;;1.98;;
45358;SDS011;31096;49.292;8.710;2022-10-16T00:59:27;3.50;;;2.20;;
45358;SDS011;31096;49.292;8.710;2022-10-16T01:04:21;3.92;;;1.88;;
45358;SDS011;31096;49.292;8.710;2022-10-16T01:09:15;3.60;;;2.00;;
45358;SDS011;31096;49.292;8.710;2022-10-16T01:19:44;5.87;;;2.23;;
45358;SDS011;31096;49.292;8.710;2022-10-16T01:24:48;3.42;;;1.95;;
45358;SDS011;31096;49.292;8.710;2022-10-16T01:34:57;3.23;;;1.60;;
45358;SDS011;31096;49.292;8.710;2022-10-16T01:39:51;3.60;;;1.75;;
45358;SDS011;31096;49.292;8.710;2022-10-16T01:44:45;6.78;;;2.03;;
45358;SDS011;31096;49.292;8.710;2022-10-16T01:49:37;4.20;;;1.60;;
45358;SDS011;31096;49.292;8.710;2022-10-16T01:54:29;3.70;;;1.58;;
45358;SDS011;31096;49.292;8.710;2022-10-16T01:59:21;4.00;;;1.75;;
45358;SDS011;31096;49.292;8.710;2022-10-16T02:04:24;3.70;;;1.90;;
45358;SDS011;31096;49.292;8.710;2022-10-16T02:09:20;5.07;;;2.23;;
45358;SDS011;31096;49.292;8.710;2022-10-16T02:14:11;4.80;;;2.00;;
45358;SDS011;31096;49.292;8.710;2022-10-16T02:19:02;3.30;;;1.70;;
45358;SDS011;31096;49.292;8.710;2022-10-16T02:24:08;3.78;;;2.13;;
45358;SDS011;31096;49.292;8.710;2022-10-16T02:29:42;5.20;;;1.80;;
45358;SDS011;31096;49.292;8.710;2022-10-16T02:34:40;3.50;;;2.10;;
45358;SDS011;31096;49.292;8.710;2022-10-16T02:39:31;3.40;;;1.60;;
45358;SDS011;31096;49.292;8.710;2022-10-16T02:44:22;4.07;;;1.97;;
45358;SDS011;31096;49.292;8.710;2022-10-16T02:49:12;4.20;;;2.40;;
45358;SDS011;31096;49.292;8.710;2022-10-16T02:54:03;4.83;;;2.40;;
45358;SDS011;31096;49.292;8.710;2022-10-16T02:58:54;5.05;;;2.25;;
45358;SDS011;31096;49.292;8.710;2022-10-16T03:03:44;4.00;;;1.63;;
45358;SDS011;31096;49.292;8.710;2022-10-16T03:08:35;5.13;;;1.90;;
45358;SDS011;31096;49.292;8.710;2022-10-16T03:13:26;6.40;;;1.75;;
45358;SDS011;31096;49.292;8.710;2022-10-16T03:18:16;3.50;;;1.57;;
45358;SDS011;31096;49.292;8.710;2022-10-16T03:23:07;3.40;;;1.80;;
45358;SDS011;31096;49.292;8.710;2022-10-16T03:27:59;3.35;;;1.75;;
45358;SDS011;31096;49.292;8.710;2022-10-16T03:32:49;3.63;;;1.93;;
45358;SDS011;31096;49.292;8.710;2022-10-16T03:37:43;7.20;;;2.25;;
45358;SDS011;31096;49.292;8.710;2022-10-16T03:42:34;4.53;;;1.87;;
45358;SDS011;31096;49.292;8.710;2022-10-16T03:47:24;3.50;;;2.10;;
45358;SDS011;31096;49.292;8.710;2022-10-16T03:52:15;4.28;;;1.90;;
45358;SDS011;31096;49.292;8.710;2022-10-16T03:57:06;3.70;;;2.00;;
45358;SDS011;31096;49.292;8.710;2022-10-16T04:01:57;3.78;;;1.83;;
45358;SDS011;31096;49.292;8.710;2022-10-16T04:06:48;4.03;;;1.80;;
45358;SDS011;31096;49.292;8.710;2022-10-16T04:11:38;4.63;;;2.17;;
45358;SDS011;31096;49.292;8.710;2022-10-16T04:16:29;4.68;;;2.08;;
45358;SDS011;31096;49.292;8.710;2022-10-16T04:21:20;4.43;;;1.97;;
45358;SDS011;31096;49.292;8.710;2022-10-16T04:26:10;3.60;;;1.80;;
45358;SDS011;31096;49.292;8.710;2022-10-16T04:31:03;6.05;;;2.28;;
45358;SDS011;31096;49.292;8.710;2022-10-16T04:35:58;9.47;;;2.40;;
45358;SDS011;31096;49.292;8.710;2022-10-16T04:40:50;3.72;;;1.90;;
45358;SDS011;31096;49.292;8.710;2022-10-16T04:45:41;4.47;;;2.17;;
45358;SDS011;31096;49.292;8.710;2022-10-16T04:50:31;4.90;;;2.43;;
45358;SDS011;31096;49.292;8.710;2022-10-16T04:55:22;3.90;;;2.33;;
45358;SDS011;31096;49.292;8.710;2022-10-16T05:00:13;6.23;;;2.30;;
45358;SDS011;31096;49.292;8.710;2022-10-16T05:05:04;4.00;;;2.05;;
45358;SDS011;31096;49.292;8.710;2022-10-16T05:09:55;4.55;;;2.10;;
45358;SDS011;31096;49.292;8.710;2022-10-16T05:14:46;4.03;;;2.07;;
45358;SDS011;31096;49.292;8.710;2022-10-16T05:19:36;5.40;;;2.10;;
45358;SDS011;31096;49.292;8.710;2022-10-16T05:24:27;5.27;;;2.27;;
45358;SDS011;31096;49.292;8.710;2022-10-16T05:29:18;4.27;;;1.80;;
45358;SDS011;31096;49.292;8.710;2022-10-16T05:34:08;5.97;;;2.23;;
45358;SDS011;31096;49.292;8.710;2022-10-16T05:38:59;3.60;;;2.10;;
45358;SDS011;31096;49.292;8.710;2022-10-16T05:43:50;4.20;;;2.00;;
45358;SDS011;31096;49.292;8.710;2022-10-16T05:48:40;5.30;;;1.90;;
45358;SDS011;31096;49.292;8.710;2022-10-16T05:53:32;4.43;;;2.30;;
45358;SDS011;31096;49.292;8.710;2022-10-16T05:58:24;3.72;;;2.13;;
45358;SDS011;31096;49.292;8.710;2022-10-16T06:03:18;4.70;;;2.45;;
45358;SDS011;31096;49.292;8.710;2022-10-16T06:08:09;6.27;;;1.93;;
45358;SDS011;31096;49.292;8.710;2022-10-16T06:12:59;4.10;;;2.27;;
45358;SDS011;31096;49.292;8.710;2022-10-16T06:17:50;4.35;;;2.30;;
45358;SDS011;31096;49.292;8.710;2022-10-16T06:22:41;5.50;;;2.50;;
45358;SDS011;31096;49.292;8.710;2022-10-16T06:27:31;4.37;;;2.47;;
45358;SDS011;31096;49.292;8.710;2022-10-16T06:32:22;4.10;;;2.50;;
45358;SDS011;31096;49.292;8.710;2022-10-16T06:37:13;7.93;;;2.95;;
45358;SDS011;31096;49.292;8.710;2022-10-16T06:42:03;4.17;;;2.67;;
45358;SDS011;31096;49.292;8.710;2022-10-16T06:46:54;7.17;;;2.50;;
45358;SDS011;31096;49.292;8.710;2022-10-16T06:51:44;3.80;;;2.40;;
45358;SDS011;31096;49.292;8.710;2022-10-16T06:56:35;4.13;;;2.60;;
45358;SDS011;31096;49.292;8.710;2022-10-16T07:01:26;4.60;;;2.73;;
45358;SDS011;31096;49.292;8.710;2022-10-16T07:06:18;3.97;;;2.33;;
45358;SDS011;31096;49.292;8.710;2022-10-16T07:11:13;6.30;;;2.50;;
45358;SDS011;31096;49.292;8.710;2022-10-16T07:16:07;4.10;;;2.22;;
45358;SDS011;31096;49.292;8.710;2022-10-16T07:21:16;4.80;;;2.53;;
45358;SDS011;31096;49.292;8.710;2022-10-16T07:26:10;4.10;;;2.60;;
45358;SDS011;31096;49.292;8.710;2022-10-16T07:31:05;4.90;;;3.00;;
45358;SDS011;31096;49.292;8.710;2022-10-16T07:35:57;4.18;;;2.78;;
45358;SDS011;31096;49.292;8.710;2022-10-16T07:40:55;4.10;;;2.60;;
45358;SDS011;31096;49.292;8.710;2022-10-16T07:45:47;5.38;;;2.70;;
45358;SDS011;31096;49.292;8.710;2022-10-16T07:50:39;3.93;;;2.17;;
45358;SDS011;31096;49.292;8.710;2022-10-16T07:55:30;4.47;;;1.80;;
45358;SDS011;31096;49.292;8.710;2022-10-16T08:00:21;4.40;;;2.30;;
45358;SDS011;31096;49.292;8.710;2022-10-16T08:05:12;4.43;;;2.20;;
45358;SDS011;31096;49.292;8.710;2022-10-16T08:10:02;4.53;;;2.30;;
45358;SDS011;31096;49.292;8.710;2022-10-16T08:14:54;4.32;;;2.38;;
45358;SDS011;31096;49.292;8.710;2022-10-16T08:19:45;3.97;;;2.40;;
45358;SDS011;31096;49.292;8.710;2022-10-16T08:24:37;4.25;;;2.50;;
45358;SDS011;31096;49.292;8.710;2022-10-16T08:29:27;6.83;;;2.27;;
45358;SDS011;31096;49.292;8.710;2022-10-16T08:34:18;4.43;;;2.58;;
45358;SDS011;31096;49.292;8.710;2022-10-16T08:39:09;4.10;;;2.70;;
45358;SDS011;31096;49.292;8.710;2022-10-16T08:49:18;3.70;;;2.10;;
45358;SDS011;31096;49.292;8.710;2022-10-16T08:54:16;5.85;;;2.65;;
45358;SDS011;31096;49.292;8.710;2022-10-16T08:59:51;4.50;;;2.27;;
45358;SDS011;31096;49.292;8.710;2022-10-16T09:04:51;3.67;;;2.20;;
45358;SDS011;31096;49.292;8.710;2022-10-16T09:10:11;7.80;;;2.10;;
45358;SDS011;31096;49.292;8.710;2022-10-16T09:15:32;3.70;;;2.00;;
45358;SDS011;31096;49.292;8.710;2022-10-16T09:20:49;6.30;;;2.28;;
45358;SDS011;31096;49.292;8.710;2022-10-16T09:25:57;4.40;;;2.08;;
45358;SDS011;31096;49.292;8.710;2022-10-16T09:30:49;3.93;;;2.10;;
45358;SDS011;31096;49.292;8.710;2022-10-16T09:35:44;5.17;;;2.50;;
45358;SDS011;31096;49.292;8.710;2022-10-16T09:40:40;4.30;;;2.28;;
45358;SDS011;31096;49.292;8.710;2022-10-16T09:45:32;4.18;;;2.17;;
45358;SDS011;31096;49.292;8.710;2022-10-16T09:50:27;4.60;;;2.30;;
45358;SDS011;31096;49.292;8.710;2022-10-16T09:55:18;3.97;;;2.10;;
45358;SDS011;31096;49.292;8.710;2022-10-16T10:00:09;4.70;;;1.93;;
45358;SDS011;31096;49.292;8.710;2022-10-16T10:05:00;3.88;;;2.42;;
45358;SDS011;31096;49.292;8.710;2022-10-16T10:09:52;3.72;;;2.30;;
45358;SDS011;31096;49.292;8.710;2022-10-16T10:14:49;5.07;;;2.30;;
45358;SDS011;31096;49.292;8.710;2022-10-16T10:19:50;4.57;;;2.03;;
45358;SDS011;31096;49.292;8.710;2022-10-16T10:30:04;5.20;;;2.10;;
45358;SDS011;31096;49.292;8.710;2022-10-16T10:45:52;4.13;;;2.20;;
45358;SDS011;31096;49.292;8.710;2022-10-16T10:50:56;6.20;;;2.20;;
45358;SDS011;31096;49.292;8.710;2022-10-16T11:01:09;6.38;;;2.78;;
45358;SDS011;31096;49.292;8.710;2022-10-16T11:21:36;3.70;;;1.90;;
45358;SDS011;31096;49.292;8.710;2022-10-16T11:26:35;4.53;;;2.00;;
45358;SDS011;31096;49.292;8.710;2022-10-16T11:31:40;3.50;;;2.00;;
45358;SDS011;31096;49.292;8.710;2022-10-16T11:36:39;3.97;;;2.33;;
45358;SDS011;31096;49.292;8.710;2022-10-16T11:46:27;4.10;;;2.40;;
45358;SDS011;31096;49.292;8.710;2022-10-16T11:51:25;5.77;;;2.20;;
45358;SDS011;31096;49.292;8.710;2022-10-16T11:56:28;7.13;;;2.20;;
45358;SDS011;31096;49.292;8.710;2022-10-16T12:06:25;4.53;;;2.73;;
45358;SDS011;31096;49.292;8.710;2022-10-16T12:16:22;3.77;;;2.33;;
45358;SDS011;31096;49.292;8.710;2022-10-16T12:21:14;3.88;;;2.30;;
45358;SDS011;31096;49.292;8.710;2022-10-16T12:26:08;4.30;;;2.20;;
45358;SDS011;31096;49.292;8.710;2022-10-16T12:31:02;6.17;;;2.80;;
45358;SDS011;31096;49.292;8.710;2022-10-16T12:35:56;6.38;;;2.00;;
45358;SDS011;31096;49.292;8.710;2022-10-16T12:40:59;4.60;;;2.30;;
45358;SDS011;31096;49.292;8.710;2022-10-16T12:46:03;5.37;;;2.37;;
45358;SDS011;31096;49.292;8.710;2022-10-16T12:52:00;8.10;;;2.00;;
45358;SDS011;31096;49.292;8.710;2022-10-16T12:56:24;5.20;;;2.20;;
45358;SDS011;31096;49.292;8.710;2022-10-16T13:12:39;4.32;;;2.58;;
45358;SDS011;31096;49.292;8.710;2022-10-16T13:17:57;4.10;;;2.08;;
45358;SDS011;31096;49.292;8.710;2022-10-16T13:23:27;8.47;;;2.40;;
45358;SDS011;31096;49.292;8.710;2022-10-16T13:28:27;4.10;;;1.52;;
45358;SDS011;31096;49.292;8.710;2022-10-16T13:38:26;4.07;;;2.37;;
45358;SDS011;31096;49.292;8.710;2022-10-16T13:43:23;4.65;;;2.40;;
45358;SDS011;31096;49.292;8.710;2022-10-16T13:48:29;5.07;;;2.40;;
45358;SDS011;31096;49.292;8.710;2022-10-16T13:53:22;4.60;;;2.20;;
45358;SDS011;31096;49.292;8.710;2022-10-16T13:58:14;5.10;;;2.60;;
45358;SDS011;31096;49.292;8.710;2022-10-16T14:03:06;3.80;;;1.77;;
45358;SDS011;31096;49.292;8.710;2022-10-16T14:08:03;5.30;;;2.63;;
45358;SDS011;31096;49.292;8.710;2022-10-16T14:12:59;6.72;;;2.88;;
45358;SDS011;31096;49.292;8.710;2022-10-16T14:17:52;3.60;;;1.90;;
45358;SDS011;31096;49.292;8.710;2022-10-16T14:22:44;3.67;;;2.20;;
45358;SDS011;31096;49.292;8.710;2022-10-16T14:27:36;7.05;;;3.10;;
45358;SDS011;31096;49.292;8.710;2022-10-16T14:32:27;5.40;;;2.70;;
45358;SDS011;31096;49.292;8.710;2022-10-16T14:37:22;7.10;;;2.73;;
45358;SDS011;31096;49.292;8.710;2022-10-16T14:42:21;4.50;;;2.85;;
45358;SDS011;31096;49.292;8.710;2022-10-16T14:47:15;4.72;;;2.83;;
45358;SDS011;31096;49.292;8.710;2022-10-16T14:52:12;4.60;;;2.70;;
45358;SDS011;31096;49.292;8.710;2022-10-16T14:57:03;6.50;;;2.37;;
45358;SDS011;31096;49.292;8.710;2022-10-16T15:01:54;3.60;;;2.20;;
45358;SDS011;31096;49.292;8.710;2022-10-16T15:06:45;4.33;;;2.27;;
45358;SDS011;31096;49.292;8.710;2022-10-16T15:11:35;5.70;;;2.05;;
45358;SDS011;31096;49.292;8.710;2022-10-16T15:16:27;4.87;;;2.43;;
45358;SDS011;31096;49.292;8.710;2022-10-16T15:21:21;4.50;;;2.75;;
45358;SDS011;31096;49.292;8.710;2022-10-16T15:26:17;4.23;;;2.13;;
45358;SDS011;31096;49.292;8.710;2022-10-16T15:31:08;5.45;;;2.47;;
45358;SDS011;31096;49.292;8.710;2022-10-16T15:35:59;6.60;;;2.20;;
45358;SDS011;31096;49.292;8.710;2022-10-16T15:40:50;4.22;;;2.50;;
45358;SDS011;31096;49.292;8.710;2022-10-16T15:45:41;4.37;;;2.80;;
45358;SDS011;31096;49.292;8.710;2022-10-16T15:50:32;6.33;;;2.70;;
45358;SDS011;31096;49.292;8.710;2022-10-16T15:55:22;5.73;;;2.50;;
45358;SDS011;31096;49.292;8.710;2022-10-16T16:00:14;7.88;;;2.83;;
45358;SDS011;31096;49.292;8.710;2022-10-16T16:05:10;6.63;;;2.83;;
45358;SDS011;31096;49.292;8.710;2022-10-16T16:10:02;5.03;;;2.58;;
45358;SDS011;31096;49.292;8.710;2022-10-16T16:14:54;4.97;;;2.53;;
45358;SDS011;31096;49.292;8.710;2022-10-16T16:19:45;5.23;;;2.80;;
45358;SDS011;31096;49.292;8.710;2022-10-16T16:24:36;5.30;;;2.75;;
45358;SDS011;31096;49.292;8.710;2022-10-16T16:29:27;7.10;;;3.40;;
45358;SDS011;31096;49.292;8.710;2022-10-16T16:34:17;4.53;;;2.57;;
45358;SDS011;31096;49.292;8.710;2022-10-16T16:39:09;6.45;;;3.78;;
45358;SDS011;31096;49.292;8.710;2022-10-16T16:44:01;5.32;;;3.38;;
45358;SDS011;31096;49.292;8.710;2022-10-16T16:48:55;8.27;;;4.13;;
45358;SDS011;31096;49.292;8.710;2022-10-16T16:53:50;5.85;;;3.50;;
45358;SDS011;31096;49.292;8.710;2022-10-16T16:58:49;11.43;;;3.58;;
45358;SDS011;31096;49.292;8.710;2022-10-16T17:03:43;6.80;;;3.80;;
45358;SDS011;31096;49.292;8.710;2022-10-16T17:08:34;7.60;;;3.55;;
45358;SDS011;31096;49.292;8.710;2022-10-16T17:13:28;6.20;;;3.40;;
45358;SDS011;31096;49.292;8.710;2022-10-16T17:18:25;7.30;;;3.60;;
45358;SDS011;31096;49.292;8.710;2022-10-16T17:23:17;6.43;;;3.60;;
45358;SDS011;31096;49.292;8.710;2022-10-16T17:28:09;13.13;;;3.33;;
45358;SDS011;31096;49.292;8.710;2022-10-16T17:33:01;9.87;;;4.57;;
45358;SDS011;31096;49.292;8.710;2022-10-16T17:37:52;7.22;;;2.90;;
45358;SDS011;31096;49.292;8.710;2022-10-16T17:42:43;9.80;;;3.70;;
45358;SDS011;31096;49.292;8.710;2022-10-16T17:47:34;7.10;;;3.10;;
45358;SDS011;31096;49.292;8.710;2022-10-16T17:52:25;6.07;;;3.40;;
45358;SDS011;31096;49.292;8.710;2022-10-16T17:57:16;12.37;;;3.90;;
45358;SDS011;31096;49.292;8.710;2022-10-16T18:02:08;6.00;;;3.20;;
45358;SDS011;31096;49.292;8.710;2022-10-16T18:07:00;7.93;;;3.22;;
45358;SDS011;31096;49.292;8.710;2022-10-16T18:11:51;5.37;;;3.03;;
45358;SDS011;31096;49.292;8.710;2022-10-16T18:16:48;6.35;;;2.83;;
45358;SDS011;31096;49.292;8.710;2022-10-16T18:21:41;4.93;;;2.72;;
45358;SDS011;31096;49.292;8.710;2022-10-16T18:26:32;7.47;;;2.27;;
45358;SDS011;31096;49.292;8.710;2022-10-16T18:31:23;10.07;;;3.00;;
45358;SDS011;31096;49.292;8.710;2022-10-16T18:36:16;7.20;;;3.00;;
45358;SDS011;31096;49.292;8.710;2022-10-16T18:41:10;6.72;;;2.53;;
45358;SDS011;31096;49.292;8.710;2022-10-16T18:46:05;6.47;;;3.40;;
45358;SDS011;31096;49.292;8.710;2022-10-16T18:51:09;8.88;;;3.25;;
45358;SDS011;31096;49.292;8.710;2022-10-16T18:56:01;5.93;;;2.60;;
45358;SDS011;31096;49.292;8.710;2022-10-16T19:00:52;6.30;;;3.33;;
45358;SDS011;31096;49.292;8.710;2022-10-16T19:05:43;6.35;;;3.65;;
45358;SDS011;31096;49.292;8.710;2022-10-16T19:10:36;4.80;;;3.00;;
45358;SDS011;31096;49.292;8.710;2022-10-16T19:15:27;7.15;;;3.10;;
45358;SDS011;31096;49.292;8.710;2022-10-16T19:20:18;5.53;;;3.07;;
45358;SDS011;31096;49.292;8.710;2022-10-16T19:25:09;7.72;;;2.95;;
45358;SDS011;31096;49.292;8.710;2022-10-16T19:29:59;13.73;;;2.97;;
45358;SDS011;31096;49.292;8.710;2022-10-16T19:34:50;5.90;;;3.00;;
45358;SDS011;31096;49.292;8.710;2022-10-16T19:39:41;5.67;;;2.70;;
45358;SDS011;31096;49.292;8.710;2022-10-16T19:44:32;6.60;;;2.50;;
45358;SDS011;31096;49.292;8.710;2022-10-16T19:49:23;8.05;;;2.90;;
45358;SDS011;31096;49.292;8.710;2022-10-16T19:54:14;8.23;;;3.00;;
45358;SDS011;31096;49.292;8.710;2022-10-16T19:59:06;8.20;;;3.95;;
45358;SDS011;31096;49.292;8.710;2022-10-16T20:04:00;8.57;;;4.03;;
45358;SDS011;31096;49.292;8.710;2022-10-16T20:08:51;9.00;;;4.82;;
45358;SDS011;31096;49.292;8.710;2022-10-16T20:13:43;7.33;;;3.20;;
45358;SDS011;31096;49.292;8.710;2022-10-16T20:18:34;8.53;;;3.90;;
45358;SDS011;31096;49.292;8.710;2022-10-16T20:23:25;7.78;;;3.60;;
45358;SDS011;31096;49.292;8.710;2022-10-16T20:28:16;7.30;;;4.57;;
45358;SDS011;31096;49.292;8.710;2022-10-16T20:33:12;8.15;;;4.80;;
45358;SDS011;31096;49.292;8.710;2022-10-16T20:38:03;6.70;;;3.97;;
45358;SDS011;31096;49.292;8.710;2022-10-16T20:42:53;5.70;;;3.03;;
45358;SDS011;31096;49.292;8.710;2022-10-16T20:47:44;5.40;;;3.00;;
45358;SDS011;31096;49.292;8.710;2022-10-16T20:52:35;5.93;;;2.83;;
45358;SDS011;31096;49.292;8.710;2022-10-16T20:57:25;4.80;;;2.63;;
45358;SDS011;31096;49.292;8.710;2022-10-16T21:02:16;6.73;;;3.30;;
45358;SDS011;31096;49.292;8.710;2022-10-16T21:07:07;8.88;;;3.00;;
45358;SDS011;31096;49.292;8.710;2022-10-16T21:11:57;8.83;;;2.87;;
45358;SDS011;31096;49.292;8.710;2022-10-16T21:16:48;7.93;;;2.93;;
45358;SDS011;31096;49.292;8.710;2022-10-16T21:21:39;6.72;;;2.90;;
45358;SDS011;31096;49.292;8.710;2022-10-16T21:26:29;5.13;;;2.80;;
45358;SDS011;31096;49.292;8.710;2022-10-16T21:31:21;7.95;;;3.00;;
45358;SDS011;31096;49.292;8.710;2022-10-16T21:36:21;5.00;;;3.00;;
45358;SDS011;31096;49.292;8.710;2022-10-16T21:41:16;6.78;;;2.75;;
45358;SDS011;31096;49.292;8.710;2022-10-16T21:46:17;5.80;;;2.80;;
45358;SDS011;31096;49.292;8.710;2022-10-16T21:51:13;5.53;;;2.93;;
45358;SDS011;31096;49.292;8.710;2022-10-16T21:56:04;5.35;;;2.40;;
45358;SDS011;31096;49.292;8.710;2022-10-16T22:01:06;6.75;;;3.30;;
45358;SDS011;31096;49.292;8.710;2022-10-16T22:06:00;4.97;;;2.60;;
45358;SDS011;31096;49.292;8.710;2022-10-16T22:10:52;8.20;;;2.75;;
45358;SDS011;31096;49.292;8.710;2022-10-16T22:15:49;5.47;;;2.50;;
45358;SDS011;31096;49.292;8.710;2022-10-16T22:20:44;7.43;;;2.65;;
45358;SDS011;31096;49.292;8.710;2022-10-16T22:25:35;6.00;;;2.63;;
45358;SDS011;31096;49.292;8.710;2022-10-16T22:30:26;6.60;;;2.83;;
45358;SDS011;31096;49.292;8.710;2022-10-16T22:35:16;4.63;;;2.83;;
45358;SDS011;31096;49.292;8.710;2022-10-16T22:40:07;4.65;;;2.50;;
45358;SDS011;31096;49.292;8.710;2022-10-16T22:44:59;6.23;;;3.03;;
45358;SDS011;31096;49.292;8.710;2022-10-16T22:49:50;6.65;;;2.63;;
45358;SDS011;31096;49.292;8.710;2022-10-16T22:54:40;5.20;;;3.20;;
45358;SDS011;31096;49.292;8.710;2022-10-16T22:59:31;6.93;;;2.50;;
45358;SDS011;31096;49.292;8.710;2022-10-16T23:04:22;4.72;;;2.72;;
45358;SDS011;31096;49.292;8.710;2022-10-16T23:09:12;7.20;;;2.60;;
45358;SDS011;31096;49.292;8.710;2022-10-16T23:14:03;5.90;;;2.97;;
45358;SDS011;31096;49.292;8.710;2022-10-16T23:18:54;7.25;;;2.85;;
45358;SDS011;31096;49.292;8.710;2022-10-16T23:23:44;7.30;;;3.00;;
45358;SDS011;31096;49.292;8.710;2022-10-16T23:28:35;6.10;;;3.00;;
45358;SDS011;31096;49.292;8.710;2022-10-16T23:33:27;5.57;;;3.00;;
45358;SDS011;31096;49.292;8.710;2022-10-16T23:38:17;5.40;;;2.53;;
45358;SDS011;31096;49.292;8.710;2022-10-16T23:43:08;6.40;;;2.83;;
45358;SDS011;31096;49.292;8.710;2022-10-16T23:47:58;9.10;;;3.03;;
45358;SDS011;31096;49.292;8.710;2022-10-16T23:52:49;5.77;;;3.10;;
45358;SDS011;31096;49.292;8.710;2022-10-16T23:57:40;7.30;;;3.53;;
